sensor_id;sensor_type;location;lat;lon;timestamp;pressure;altitude;pressure_sealevel;temperature;humidity
75555;BME280;66087;53.126;17.960;2023-04-03T00:00:17;101948.21;;;0.63;61.35
75555;BME280;66087;53.126;17.960;2023-04-03T00:03:03;101948.08;;;0.62;61.74
75555;BME280;66087;53.126;17.960;2023-04-03T00:05:30;101949.63;;;0.61;61.92
75555;BME280;66087;53.126;17.960;2023-04-03T00:07:57;101949.06;;;0.57;61.68
75555;BME280;66087;53.126;17.960;2023-04-03T00:10:23;101944.48;;;0.54;62.03
75555;BME280;66087;53.126;17.960;2023-04-03T00:12:50;101945.20;;;0.53;62.07
75555;BME280;66087;53.126;17.960;2023-04-03T00:15:17;101942.40;;;0.52;62.12
75555;BME280;66087;53.126;17.960;2023-04-03T00:17:44;101946.17;;;0.51;62.19
75555;BME280;66087;53.126;17.960;2023-04-03T00:20:11;101946.67;;;0.50;62.21
75555;BME280;66087;53.126;17.960;2023-04-03T00:22:37;101944.56;;;0.49;62.52
75555;BME280;66087;53.126;17.960;2023-04-03T00:25:04;101944.05;;;0.48;62.39
75555;BME280;66087;53.126;17.960;2023-04-03T00:27:31;101936.31;;;0.41;62.50
75555;BME280;66087;53.126;17.960;2023-04-03T00:29:58;101940.91;;;0.43;62.45
75555;BME280;66087;53.126;17.960;2023-04-03T00:32:24;101938.48;;;0.42;62.43
75555;BME280;66087;53.126;17.960;2023-04-03T00:34:51;101941.00;;;0.40;62.72
75555;BME280;66087;53.126;17.960;2023-04-03T00:37:18;101937.85;;;0.38;62.99
75555;BME280;66087;53.126;17.960;2023-04-03T00:39:45;101942.70;;;0.36;63.28
75555;BME280;66087;53.126;17.960;2023-04-03T00:42:12;101938.00;;;0.34;63.06
75555;BME280;66087;53.126;17.960;2023-04-03T00:47:45;101939.39;;;0.28;63.36
75555;BME280;66087;53.126;17.960;2023-04-03T00:50:12;101943.02;;;0.26;63.36
75555;BME280;66087;53.126;17.960;2023-04-03T00:52:39;101941.98;;;0.25;63.36
75555;BME280;66087;53.126;17.960;2023-04-03T00:55:07;101943.59;;;0.23;63.62
75555;BME280;66087;53.126;17.960;2023-04-03T00:57:35;101943.77;;;0.22;63.63
75555;BME280;66087;53.126;17.960;2023-04-03T01:00:10;101945.52;;;0.21;63.95
75555;BME280;66087;53.126;17.960;2023-04-03T01:02:38;101943.54;;;0.19;63.85
75555;BME280;66087;53.126;17.960;2023-04-03T01:05:07;101943.30;;;0.18;63.62
75555;BME280;66087;53.126;17.960;2023-04-03T01:07:37;101940.55;;;0.16;63.86
75555;BME280;66087;53.126;17.960;2023-04-03T01:10:08;101941.48;;;0.14;64.25
75555;BME280;66087;53.126;17.960;2023-04-03T01:12:39;101941.53;;;0.12;64.37
75555;BME280;66087;53.126;17.960;2023-04-03T01:15:24;101941.65;;;0.09;64.17
75555;BME280;66087;53.126;17.960;2023-04-03T01:17:54;101943.28;;;0.08;64.27
75555;BME280;66087;53.126;17.960;2023-04-03T01:20:43;101945.66;;;0.07;64.52
75555;BME280;66087;53.126;17.960;2023-04-03T01:23:38;101944.63;;;0.06;64.25
75555;BME280;66087;53.126;17.960;2023-04-03T01:26:10;101948.73;;;0.06;64.95
75555;BME280;66087;53.126;17.960;2023-04-03T01:28:38;101953.58;;;0.05;64.63
75555;BME280;66087;53.126;17.960;2023-04-03T01:33:51;101945.33;;;-0.03;64.68
75555;BME280;66087;53.126;17.960;2023-04-03T01:36:25;101953.02;;;0.01;64.88
75555;BME280;66087;53.126;17.960;2023-04-03T01:38:55;101958.45;;;-0.00;64.89
75555;BME280;66087;53.126;17.960;2023-04-03T01:41:23;101958.36;;;-0.01;65.06
75555;BME280;66087;53.126;17.960;2023-04-03T01:43:51;101956.13;;;-0.01;65.07
75555;BME280;66087;53.126;17.960;2023-04-03T01:46:19;101963.24;;;-0.01;64.95
75555;BME280;66087;53.126;17.960;2023-04-03T01:48:47;101962.65;;;-0.01;65.06
75555;BME280;66087;53.126;17.960;2023-04-03T01:51:14;101962.23;;;-0.01;65.13
75555;BME280;66087;53.126;17.960;2023-04-03T01:53:41;101959.04;;;-0.02;64.85
75555;BME280;66087;53.126;17.960;2023-04-03T01:56:08;101963.48;;;-0.02;64.97
75555;BME280;66087;53.126;17.960;2023-04-03T01:58:35;101959.66;;;-0.04;65.08
75555;BME280;66087;53.126;17.960;2023-04-03T02:01:02;101965.04;;;-0.04;65.13
75555;BME280;66087;53.126;17.960;2023-04-03T02:03:29;101968.85;;;-0.05;65.18
75555;BME280;66087;53.126;17.960;2023-04-03T02:05:57;101966.29;;;-0.05;65.61
75555;BME280;66087;53.126;17.960;2023-04-03T02:08:24;101966.13;;;-0.06;65.63
75555;BME280;66087;53.126;17.960;2023-04-03T02:10:50;101965.27;;;-0.08;65.61
75555;BME280;66087;53.126;17.960;2023-04-03T02:13:18;101968.02;;;-0.09;65.62
75555;BME280;66087;53.126;17.960;2023-04-03T02:15:45;101965.56;;;-0.11;65.92
75555;BME280;66087;53.126;17.960;2023-04-03T02:18:14;101963.80;;;-0.15;66.12
75555;BME280;66087;53.126;17.960;2023-04-03T02:20:42;101968.05;;;-0.13;65.97
75555;BME280;66087;53.126;17.960;2023-04-03T02:23:09;101966.23;;;-0.14;65.92
75555;BME280;66087;53.126;17.960;2023-04-03T02:25:36;101966.64;;;-0.15;65.96
75555;BME280;66087;53.126;17.960;2023-04-03T02:28:02;101967.70;;;-0.15;65.97
75555;BME280;66087;53.126;17.960;2023-04-03T02:30:31;101967.77;;;-0.16;66.34
75555;BME280;66087;53.126;17.960;2023-04-03T02:32:57;101963.70;;;-0.18;66.18
75555;BME280;66087;53.126;17.960;2023-04-03T02:35:25;101970.19;;;-0.17;66.36
75555;BME280;66087;53.126;17.960;2023-04-03T02:37:52;101975.42;;;-0.16;66.18
75555;BME280;66087;53.126;17.960;2023-04-03T02:40:19;101977.15;;;-0.17;66.49
75555;BME280;66087;53.126;17.960;2023-04-03T02:42:46;101976.76;;;-0.19;66.42
75555;BME280;66087;53.126;17.960;2023-04-03T02:45:12;101981.23;;;-0.20;66.62
75555;BME280;66087;53.126;17.960;2023-04-03T02:47:39;101989.32;;;-0.21;66.68
75555;BME280;66087;53.126;17.960;2023-04-03T02:50:06;101987.60;;;-0.23;66.54
75555;BME280;66087;53.126;17.960;2023-04-03T02:52:33;101987.73;;;-0.23;66.59
75555;BME280;66087;53.126;17.960;2023-04-03T02:55:01;101990.36;;;-0.24;66.34
75555;BME280;66087;53.126;17.960;2023-04-03T02:57:28;101989.73;;;-0.25;66.60
75555;BME280;66087;53.126;17.960;2023-04-03T02:59:54;101996.83;;;-0.26;66.54
75555;BME280;66087;53.126;17.960;2023-04-03T03:02:21;101996.41;;;-0.27;66.54
75555;BME280;66087;53.126;17.960;2023-04-03T03:04:47;101996.81;;;-0.28;66.72
75555;BME280;66087;53.126;17.960;2023-04-03T03:07:14;102000.11;;;-0.29;66.89
75555;BME280;66087;53.126;17.960;2023-04-03T03:09:41;101999.92;;;-0.31;66.75
75555;BME280;66087;53.126;17.960;2023-04-03T03:12:07;101998.43;;;-0.33;67.05
75555;BME280;66087;53.126;17.960;2023-04-03T03:14:34;101996.75;;;-0.35;67.02
75555;BME280;66087;53.126;17.960;2023-04-03T03:17:00;102001.97;;;-0.36;67.32
75555;BME280;66087;53.126;17.960;2023-04-03T03:19:27;102003.12;;;-0.37;67.61
75555;BME280;66087;53.126;17.960;2023-04-03T03:21:54;102005.45;;;-0.39;67.41
75555;BME280;66087;53.126;17.960;2023-04-03T03:24:22;102003.25;;;-0.40;67.98
75555;BME280;66087;53.126;17.960;2023-04-03T03:26:49;102003.13;;;-0.42;67.67
75555;BME280;66087;53.126;17.960;2023-04-03T03:29:16;102001.19;;;-0.43;67.76
75555;BME280;66087;53.126;17.960;2023-04-03T03:31:42;102002.48;;;-0.44;67.79
75555;BME280;66087;53.126;17.960;2023-04-03T03:34:09;102007.73;;;-0.45;67.75
75555;BME280;66087;53.126;17.960;2023-04-03T03:36:36;102006.52;;;-0.46;67.61
75555;BME280;66087;53.126;17.960;2023-04-03T03:39:03;102010.64;;;-0.46;67.96
75555;BME280;66087;53.126;17.960;2023-04-03T03:41:31;102014.07;;;-0.46;67.96
75555;BME280;66087;53.126;17.960;2023-04-03T03:43:58;102013.75;;;-0.47;67.97
75555;BME280;66087;53.126;17.960;2023-04-03T03:46:26;102017.23;;;-0.47;68.09
75555;BME280;66087;53.126;17.960;2023-04-03T03:48:53;102020.18;;;-0.47;68.03
75555;BME280;66087;53.126;17.960;2023-04-03T03:51:20;102021.30;;;-0.48;67.95
75555;BME280;66087;53.126;17.960;2023-04-03T03:53:46;102024.31;;;-0.49;68.06
75555;BME280;66087;53.126;17.960;2023-04-03T03:56:15;102024.04;;;-0.50;68.16
75555;BME280;66087;53.126;17.960;2023-04-03T03:58:42;102024.80;;;-0.52;68.29
75555;BME280;66087;53.126;17.960;2023-04-03T04:01:08;102023.61;;;-0.54;68.08
75555;BME280;66087;53.126;17.960;2023-04-03T04:03:41;102029.19;;;-0.57;68.42
75555;BME280;66087;53.126;17.960;2023-04-03T04:06:09;102026.48;;;-0.57;68.24
75555;BME280;66087;53.126;17.960;2023-04-03T04:08:36;102028.55;;;-0.59;68.33
75555;BME280;66087;53.126;17.960;2023-04-03T04:11:05;102030.67;;;-0.59;68.64
75555;BME280;66087;53.126;17.960;2023-04-03T04:13:33;102034.43;;;-0.60;68.27
75555;BME280;66087;53.126;17.960;2023-04-03T04:16:00;102034.85;;;-0.59;68.48
75555;BME280;66087;53.126;17.960;2023-04-03T04:18:27;102040.95;;;-0.59;68.42
75555;BME280;66087;53.126;17.960;2023-04-03T04:20:54;102045.17;;;-0.60;68.39
75555;BME280;66087;53.126;17.960;2023-04-03T04:23:21;102047.79;;;-0.60;68.42
75555;BME280;66087;53.126;17.960;2023-04-03T04:25:50;102048.73;;;-0.59;68.71
75555;BME280;66087;53.126;17.960;2023-04-03T04:28:17;102049.36;;;-0.57;68.24
75555;BME280;66087;53.126;17.960;2023-04-03T04:30:44;102048.75;;;-0.57;68.28
75555;BME280;66087;53.126;17.960;2023-04-03T04:33:12;102050.26;;;-0.55;68.44
75555;BME280;66087;53.126;17.960;2023-04-03T04:35:42;102050.37;;;-0.53;68.68
75555;BME280;66087;53.126;17.960;2023-04-03T04:38:09;102049.29;;;-0.52;68.30
75555;BME280;66087;53.126;17.960;2023-04-03T04:40:36;102047.27;;;-0.50;68.55
75555;BME280;66087;53.126;17.960;2023-04-03T04:43:04;102048.77;;;-0.47;68.55
75555;BME280;66087;53.126;17.960;2023-04-03T04:45:31;102051.30;;;-0.46;68.46
75555;BME280;66087;53.126;17.960;2023-04-03T04:47:58;102053.65;;;-0.43;68.47
75555;BME280;66087;53.126;17.960;2023-04-03T04:50:25;102055.46;;;-0.40;68.37
75555;BME280;66087;53.126;17.960;2023-04-03T04:52:53;102059.04;;;-0.38;68.47
75555;BME280;66087;53.126;17.960;2023-04-03T04:55:19;102060.45;;;-0.36;68.25
75555;BME280;66087;53.126;17.960;2023-04-03T04:57:47;102065.58;;;-0.33;68.29
75555;BME280;66087;53.126;17.960;2023-04-03T05:00:14;102068.59;;;-0.29;68.28
75555;BME280;66087;53.126;17.960;2023-04-03T05:02:41;102070.75;;;-0.26;68.50
75555;BME280;66087;53.126;17.960;2023-04-03T05:05:08;102071.64;;;-0.21;68.37
75555;BME280;66087;53.126;17.960;2023-04-03T05:07:35;102076.04;;;-0.16;67.99
75555;BME280;66087;53.126;17.960;2023-04-03T05:10:03;102075.58;;;-0.12;68.12
75555;BME280;66087;53.126;17.960;2023-04-03T05:12:30;102072.90;;;-0.08;68.03
75555;BME280;66087;53.126;17.960;2023-04-03T05:14:59;102078.20;;;-0.03;67.80
75555;BME280;66087;53.126;17.960;2023-04-03T05:17:26;102073.73;;;0.03;67.97
75555;BME280;66087;53.126;17.960;2023-04-03T05:19:54;102078.84;;;0.10;67.77
75555;BME280;66087;53.126;17.960;2023-04-03T05:22:22;102080.21;;;0.15;67.56
75555;BME280;66087;53.126;17.960;2023-04-03T05:24:50;102083.98;;;0.20;67.70
75555;BME280;66087;53.126;17.960;2023-04-03T05:27:17;102080.09;;;0.26;67.83
75555;BME280;66087;53.126;17.960;2023-04-03T05:29:46;102079.73;;;0.32;67.57
75555;BME280;66087;53.126;17.960;2023-04-03T05:32:16;102080.30;;;0.38;67.43
75555;BME280;66087;53.126;17.960;2023-04-03T05:34:44;102064.65;;;0.32;67.44
75555;BME280;66087;53.126;17.960;2023-04-03T05:37:11;102082.59;;;0.49;67.20
75555;BME280;66087;53.126;17.960;2023-04-03T05:39:38;102083.48;;;0.55;66.83
75555;BME280;66087;53.126;17.960;2023-04-03T05:42:07;102079.20;;;0.61;66.93
75555;BME280;66087;53.126;17.960;2023-04-03T05:44:34;102079.84;;;0.68;66.56
75555;BME280;66087;53.126;17.960;2023-04-03T05:47:02;102079.34;;;0.75;66.73
75555;BME280;66087;53.126;17.960;2023-04-03T05:49:29;102084.35;;;0.81;66.44
75555;BME280;66087;53.126;17.960;2023-04-03T05:51:56;102081.73;;;0.87;66.25
75555;BME280;66087;53.126;17.960;2023-04-03T05:54:27;102082.02;;;0.92;66.21
75555;BME280;66087;53.126;17.960;2023-04-03T05:56:59;102081.30;;;0.99;65.86
75555;BME280;66087;53.126;17.960;2023-04-03T05:59:26;102081.56;;;1.06;65.74
75555;BME280;66087;53.126;17.960;2023-04-03T06:01:53;102082.42;;;1.20;65.45
75555;BME280;66087;53.126;17.960;2023-04-03T06:04:21;102084.45;;;1.39;65.09
75555;BME280;66087;53.126;17.960;2023-04-03T06:06:51;102088.80;;;1.59;64.68
75555;BME280;66087;53.126;17.960;2023-04-03T06:09:20;102091.45;;;1.80;64.12
75555;BME280;66087;53.126;17.960;2023-04-03T06:11:47;102090.43;;;1.98;63.88
75555;BME280;66087;53.126;17.960;2023-04-03T06:14:14;102094.75;;;2.13;63.55
75555;BME280;66087;53.126;17.960;2023-04-03T06:16:41;102095.06;;;2.25;62.97
75555;BME280;66087;53.126;17.960;2023-04-03T06:19:08;102094.71;;;2.32;62.34
75555;BME280;66087;53.126;17.960;2023-04-03T06:21:37;102097.77;;;2.34;62.29
75555;BME280;66087;53.126;17.960;2023-04-03T06:24:04;102102.02;;;2.29;62.27
75555;BME280;66087;53.126;17.960;2023-04-03T06:26:33;102105.77;;;2.21;62.04
75555;BME280;66087;53.126;17.960;2023-04-03T06:29:00;102104.22;;;2.10;62.14
75555;BME280;66087;53.126;17.960;2023-04-03T06:31:28;102108.70;;;2.08;62.22
75555;BME280;66087;53.126;17.960;2023-04-03T06:33:55;102111.45;;;2.09;62.16
75555;BME280;66087;53.126;17.960;2023-04-03T06:36:22;102112.52;;;2.09;61.46
75555;BME280;66087;53.126;17.960;2023-04-03T06:38:49;102114.70;;;2.08;61.31
75555;BME280;66087;53.126;17.960;2023-04-03T06:41:16;102118.30;;;2.08;60.77
75555;BME280;66087;53.126;17.960;2023-04-03T06:43:44;102114.58;;;2.08;60.69
75555;BME280;66087;53.126;17.960;2023-04-03T06:46:15;102114.17;;;2.13;60.29
75555;BME280;66087;53.126;17.960;2023-04-03T06:48:49;102120.06;;;2.22;60.19
75555;BME280;66087;53.126;17.960;2023-04-03T06:51:27;102119.13;;;2.36;59.99
75555;BME280;66087;53.126;17.960;2023-04-03T06:53:56;102121.14;;;2.67;58.70
75555;BME280;66087;53.126;17.960;2023-04-03T06:56:25;102126.40;;;3.04;57.41
75555;BME280;66087;53.126;17.960;2023-04-03T06:58:53;102126.27;;;3.16;56.18
75555;BME280;66087;53.126;17.960;2023-04-03T07:01:21;102132.94;;;3.19;55.16
75555;BME280;66087;53.126;17.960;2023-04-03T07:03:48;102127.80;;;3.33;55.08
75555;BME280;66087;53.126;17.960;2023-04-03T07:06:16;102135.36;;;3.47;56.03
75555;BME280;66087;53.126;17.960;2023-04-03T07:08:45;102136.06;;;3.53;55.03
75555;BME280;66087;53.126;17.960;2023-04-03T07:11:13;102136.14;;;3.61;56.16
75555;BME280;66087;53.126;17.960;2023-04-03T07:13:39;102140.40;;;3.65;56.02
75555;BME280;66087;53.126;17.960;2023-04-03T07:16:07;102147.42;;;3.64;55.47
75555;BME280;66087;53.126;17.960;2023-04-03T07:18:35;102145.89;;;3.65;55.48
75555;BME280;66087;53.126;17.960;2023-04-03T07:21:02;102148.20;;;3.61;55.82
75555;BME280;66087;53.126;17.960;2023-04-03T07:23:30;102150.33;;;3.62;55.26
75555;BME280;66087;53.126;17.960;2023-04-03T07:25:57;102152.88;;;3.66;54.78
75555;BME280;66087;53.126;17.960;2023-04-03T07:28:24;102153.09;;;3.74;54.86
75555;BME280;66087;53.126;17.960;2023-04-03T07:30:54;102156.83;;;3.76;55.25
75555;BME280;66087;53.126;17.960;2023-04-03T07:33:26;102157.61;;;3.77;55.11
75555;BME280;66087;53.126;17.960;2023-04-03T07:35:52;102162.44;;;3.73;53.77
75555;BME280;66087;53.126;17.960;2023-04-03T07:38:19;102159.58;;;3.64;54.37
75555;BME280;66087;53.126;17.960;2023-04-03T07:40:48;102158.42;;;3.67;54.80
75555;BME280;66087;53.126;17.960;2023-04-03T07:43:17;102160.34;;;3.78;54.73
75555;BME280;66087;53.126;17.960;2023-04-03T07:45:57;102157.97;;;3.86;52.70
75555;BME280;66087;53.126;17.960;2023-04-03T07:48:28;102161.70;;;3.99;54.01
75555;BME280;66087;53.126;17.960;2023-04-03T07:51:00;102156.07;;;4.11;53.59
75555;BME280;66087;53.126;17.960;2023-04-03T07:53:28;102160.59;;;4.25;53.08
75555;BME280;66087;53.126;17.960;2023-04-03T07:55:58;102162.69;;;4.40;51.65
75555;BME280;66087;53.126;17.960;2023-04-03T07:58:25;102161.73;;;4.54;50.82
75555;BME280;66087;53.126;17.960;2023-04-03T08:00:53;102165.08;;;4.74;52.27
75555;BME280;66087;53.126;17.960;2023-04-03T08:03:20;102163.55;;;5.01;50.98
75555;BME280;66087;53.126;17.960;2023-04-03T08:05:48;102157.33;;;5.15;49.24
75555;BME280;66087;53.126;17.960;2023-04-03T08:08:19;102161.66;;;5.25;49.47
75555;BME280;66087;53.126;17.960;2023-04-03T08:10:54;102159.15;;;5.33;47.45
75555;BME280;66087;53.126;17.960;2023-04-03T08:13:21;102160.34;;;5.37;48.92
75555;BME280;66087;53.126;17.960;2023-04-03T08:15:48;102166.20;;;5.43;47.94
75555;BME280;66087;53.126;17.960;2023-04-03T08:18:15;102172.60;;;5.46;48.03
75555;BME280;66087;53.126;17.960;2023-04-03T08:20:42;102170.17;;;5.45;47.56
75555;BME280;66087;53.126;17.960;2023-04-03T08:23:10;102169.67;;;5.36;46.33
75555;BME280;66087;53.126;17.960;2023-04-03T08:25:39;102169.41;;;5.31;47.59
75555;BME280;66087;53.126;17.960;2023-04-03T08:28:06;102168.95;;;5.32;47.19
75555;BME280;66087;53.126;17.960;2023-04-03T08:30:33;102167.46;;;5.35;46.90
75555;BME280;66087;53.126;17.960;2023-04-03T08:33:02;102170.43;;;5.41;47.33
75555;BME280;66087;53.126;17.960;2023-04-03T08:35:29;102171.38;;;5.48;47.18
75555;BME280;66087;53.126;17.960;2023-04-03T08:37:56;102170.67;;;5.56;47.45
75555;BME280;66087;53.126;17.960;2023-04-03T08:40:23;102168.96;;;5.60;47.00
75555;BME280;66087;53.126;17.960;2023-04-03T08:43:03;102173.94;;;5.61;46.73
75555;BME280;66087;53.126;17.960;2023-04-03T08:45:52;102166.96;;;5.58;45.53
75555;BME280;66087;53.126;17.960;2023-04-03T08:48:27;102174.66;;;5.53;43.61
75555;BME280;66087;53.126;17.960;2023-04-03T08:51:00;102166.64;;;5.45;42.87
75555;BME280;66087;53.126;17.960;2023-04-03T08:53:29;102172.66;;;5.31;43.21
75555;BME280;66087;53.126;17.960;2023-04-03T08:56:05;102173.47;;;5.21;44.49
75555;BME280;66087;53.126;17.960;2023-04-03T08:58:45;102172.38;;;5.16;45.54
75555;BME280;66087;53.126;17.960;2023-04-03T09:01:19;102172.25;;;5.19;44.49
75555;BME280;66087;53.126;17.960;2023-04-03T09:03:47;102173.27;;;5.13;42.43
75555;BME280;66087;53.126;17.960;2023-04-03T09:06:25;102172.01;;;5.08;40.98
75555;BME280;66087;53.126;17.960;2023-04-03T09:12:06;102175.02;;;4.92;42.23
75555;BME280;66087;53.126;17.960;2023-04-03T09:14:41;102175.39;;;4.92;43.81
75555;BME280;66087;53.126;17.960;2023-04-03T09:17:20;102170.77;;;5.03;43.09
75555;BME280;66087;53.126;17.960;2023-04-03T09:19:55;102175.02;;;5.03;43.67
75555;BME280;66087;53.126;17.960;2023-04-03T09:22:25;102176.55;;;5.03;41.84
75555;BME280;66087;53.126;17.960;2023-04-03T09:24:59;102172.50;;;5.08;43.63
75555;BME280;66087;53.126;17.960;2023-04-03T09:27:27;102171.39;;;5.23;44.29
75555;BME280;66087;53.126;17.960;2023-04-03T09:29:56;102174.54;;;5.35;42.57
75555;BME280;66087;53.126;17.960;2023-04-03T09:32:30;102176.86;;;5.41;43.21
75555;BME280;66087;53.126;17.960;2023-04-03T09:35:02;102175.80;;;5.45;43.46
75555;BME280;66087;53.126;17.960;2023-04-03T09:37:39;102177.66;;;5.47;42.60
75555;BME280;66087;53.126;17.960;2023-04-03T09:40:29;102178.58;;;5.43;42.01
75555;BME280;66087;53.126;17.960;2023-04-03T09:42:59;102171.17;;;5.38;42.18
75555;BME280;66087;53.126;17.960;2023-04-03T09:45:33;102173.41;;;5.47;43.45
75555;BME280;66087;53.126;17.960;2023-04-03T09:48:12;102170.17;;;5.67;43.33
75555;BME280;66087;53.126;17.960;2023-04-03T09:50:53;102186.66;;;5.71;43.26
75555;BME280;66087;53.126;17.960;2023-04-03T09:53:36;102183.54;;;5.50;43.08
75555;BME280;66087;53.126;17.960;2023-04-03T09:56:18;102179.21;;;5.27;43.71
75555;BME280;66087;53.126;17.960;2023-04-03T09:58:50;102179.32;;;5.21;43.36
75555;BME280;66087;53.126;17.960;2023-04-03T10:01:30;102174.61;;;5.21;43.13
75555;BME280;66087;53.126;17.960;2023-04-03T10:04:09;102171.10;;;5.22;41.39
75555;BME280;66087;53.126;17.960;2023-04-03T10:06:40;102172.71;;;5.40;42.88
75555;BME280;66087;53.126;17.960;2023-04-03T10:09:24;102168.32;;;5.88;43.19
75555;BME280;66087;53.126;17.960;2023-04-03T10:12:08;102173.54;;;6.28;42.65
75555;BME280;66087;53.126;17.960;2023-04-03T10:14:54;102170.90;;;6.52;42.43
75555;BME280;66087;53.126;17.960;2023-04-03T10:20:33;102174.51;;;6.48;40.80
75555;BME280;66087;53.126;17.960;2023-04-03T10:23:17;102182.23;;;6.27;41.00
75555;BME280;66087;53.126;17.960;2023-04-03T10:26:04;102176.74;;;6.27;41.22
75555;BME280;66087;53.126;17.960;2023-04-03T10:28:51;102176.23;;;6.33;40.44
75555;BME280;66087;53.126;17.960;2023-04-03T10:31:35;102171.66;;;6.33;41.15
75555;BME280;66087;53.126;17.960;2023-04-03T10:34:10;102176.11;;;6.24;40.74
75555;BME280;66087;53.126;17.960;2023-04-03T10:37:08;102172.40;;;6.03;41.15
75555;BME280;66087;53.126;17.960;2023-04-03T10:39:52;102169.98;;;5.97;40.84
75555;BME280;66087;53.126;17.960;2023-04-03T10:45:24;102163.04;;;6.15;40.53
75555;BME280;66087;53.126;17.960;2023-04-03T10:48:04;102159.59;;;6.48;40.13
75555;BME280;66087;53.126;17.960;2023-04-03T10:50:58;102160.70;;;6.97;39.98
75555;BME280;66087;53.126;17.960;2023-04-03T10:53:39;102167.84;;;7.04;39.03
75555;BME280;66087;53.126;17.960;2023-04-03T10:59:08;102175.57;;;6.95;38.96
75555;BME280;66087;53.126;17.960;2023-04-03T11:01:41;102163.87;;;7.06;39.15
75555;BME280;66087;53.126;17.960;2023-04-03T11:04:11;102162.66;;;7.44;38.47
75555;BME280;66087;53.126;17.960;2023-04-03T11:06:43;102152.79;;;7.78;37.91
75555;BME280;66087;53.126;17.960;2023-04-03T11:09:21;102161.77;;;8.02;38.78
75555;BME280;66087;53.126;17.960;2023-04-03T11:11:55;102177.21;;;8.11;37.39
75555;BME280;66087;53.126;17.960;2023-04-03T11:14:30;102168.36;;;8.07;38.22
75555;BME280;66087;53.126;17.960;2023-04-03T11:17:09;102164.83;;;8.08;39.11
75555;BME280;66087;53.126;17.960;2023-04-03T11:20:06;102170.04;;;8.19;38.95
75555;BME280;66087;53.126;17.960;2023-04-03T11:22:40;102161.50;;;7.94;37.56
75555;BME280;66087;53.126;17.960;2023-04-03T11:25:21;102159.98;;;7.61;38.00
75555;BME280;66087;53.126;17.960;2023-04-03T11:28:00;102151.30;;;7.51;37.18
75555;BME280;66087;53.126;17.960;2023-04-03T11:30:33;102148.91;;;7.61;37.59
75555;BME280;66087;53.126;17.960;2023-04-03T11:33:32;102136.80;;;7.73;35.79
75555;BME280;66087;53.126;17.960;2023-04-03T11:36:18;102132.88;;;7.77;35.88
75555;BME280;66087;53.126;17.960;2023-04-03T11:38:49;102126.21;;;8.04;35.89
75555;BME280;66087;53.126;17.960;2023-04-03T11:41:25;102116.92;;;8.42;35.64
75555;BME280;66087;53.126;17.960;2023-04-03T11:44:03;102115.02;;;8.63;35.01
75555;BME280;66087;53.126;17.960;2023-04-03T11:52:10;102123.98;;;9.28;36.69
75555;BME280;66087;53.126;17.960;2023-04-03T11:54:47;102131.17;;;9.31;36.55
75555;BME280;66087;53.126;17.960;2023-04-03T11:57:45;102141.52;;;9.28;36.60
75555;BME280;66087;53.126;17.960;2023-04-03T12:03:01;102132.83;;;9.24;36.35
75555;BME280;66087;53.126;17.960;2023-04-03T12:05:29;102133.10;;;9.16;36.11
75555;BME280;66087;53.126;17.960;2023-04-03T12:11:14;102130.39;;;9.82;35.06
75555;BME280;66087;53.126;17.960;2023-04-03T12:14:03;102120.48;;;9.78;35.67
75555;BME280;66087;53.126;17.960;2023-04-03T12:16:45;102123.64;;;9.71;35.83
75555;BME280;66087;53.126;17.960;2023-04-03T12:19:33;102129.02;;;9.57;34.98
75555;BME280;66087;53.126;17.960;2023-04-03T12:22:08;102127.52;;;9.40;35.39
75555;BME280;66087;53.126;17.960;2023-04-03T12:24:40;102127.50;;;9.54;35.76
75555;BME280;66087;53.126;17.960;2023-04-03T12:33:02;102119.74;;;9.11;35.54
75555;BME280;66087;53.126;17.960;2023-04-03T12:35:37;102119.59;;;9.34;35.43
75555;BME280;66087;53.126;17.960;2023-04-03T12:46:44;102111.59;;;9.24;35.41
75555;BME280;66087;53.126;17.960;2023-04-03T12:49:26;102108.02;;;9.11;35.84
75555;BME280;66087;53.126;17.960;2023-04-03T12:51:57;102109.09;;;9.09;35.46
75555;BME280;66087;53.126;17.960;2023-04-03T12:54:35;102112.15;;;9.06;35.49
75555;BME280;66087;53.126;17.960;2023-04-03T12:57:16;102108.86;;;9.05;35.48
75555;BME280;66087;53.126;17.960;2023-04-03T12:59:43;102099.96;;;9.29;34.77
75555;BME280;66087;53.126;17.960;2023-04-03T13:02:23;102100.77;;;9.68;33.48
75555;BME280;66087;53.126;17.960;2023-04-03T13:04:52;102100.48;;;10.22;34.03
75555;BME280;66087;53.126;17.960;2023-04-03T13:07:25;102096.41;;;10.36;34.20
75555;BME280;66087;53.126;17.960;2023-04-03T13:09:56;102104.29;;;10.09;33.58
75555;BME280;66087;53.126;17.960;2023-04-03T13:12:26;102109.09;;;9.80;33.32
75555;BME280;66087;53.126;17.960;2023-04-03T13:14:56;102105.92;;;9.49;33.38
75555;BME280;66087;53.126;17.960;2023-04-03T13:17:25;102109.02;;;9.27;34.24
75555;BME280;66087;53.126;17.960;2023-04-03T13:19:52;102108.31;;;9.33;34.38
75555;BME280;66087;53.126;17.960;2023-04-03T13:22:28;102096.41;;;9.94;33.89
75555;BME280;66087;53.126;17.960;2023-04-03T13:24:59;102088.78;;;10.29;30.88
75555;BME280;66087;53.126;17.960;2023-04-03T13:27:30;102099.86;;;9.75;32.66
75555;BME280;66087;53.126;17.960;2023-04-03T13:30:00;102094.17;;;9.79;33.13
75555;BME280;66087;53.126;17.960;2023-04-03T13:32:30;102091.67;;;11.71;31.42
75555;BME280;66087;53.126;17.960;2023-04-03T13:34:58;102090.64;;;13.68;30.56
75555;BME280;66087;53.126;17.960;2023-04-03T13:37:31;102085.09;;;14.23;31.30
75555;BME280;66087;53.126;17.960;2023-04-03T13:40:12;102093.70;;;13.17;30.38
75555;BME280;66087;53.126;17.960;2023-04-03T13:42:41;102089.58;;;11.94;30.59
75555;BME280;66087;53.126;17.960;2023-04-03T13:45:21;102089.86;;;11.00;31.25
75555;BME280;66087;53.126;17.960;2023-04-03T13:47:52;102092.52;;;10.43;31.89
75555;BME280;66087;53.126;17.960;2023-04-03T13:50:24;102087.91;;;10.21;32.11